Time;durP1;ratioP1;P1;durP2;ratioP2;P2;SDS_P1;SDS_P2;PMS_P1;PMS_P2;Temp;Humidity;BMP_temperature;BMP_pressure;BME280_temperature;BME280_humidity;BME280_pressure;Samples;Min_cycle;Max_cycle;Signal;HPM_P1;HPM_P2
2022/06/15 00:01:48;;;;;;;0.40;0.40;;;14.10;97.50;;;;;;5115436;28;20434;-70
2022/06/15 00:04:14;;;;;;;0.40;0.40;;;14.10;97.50;;;;;;5115416;28;20196;-70
2022/06/15 00:06:41;;;;;;;0.70;0.70;;;14.00;97.40;;;;;;5115429;28;20671;-70
2022/06/15 00:09:08;;;;;;;0.30;0.30;;;14.00;97.70;;;;;;5115368;28;20398;-70
2022/06/15 00:11:40;;;;;;;0.30;0.30;;;14.00;97.80;;;;;;5115272;28;20413;-69
2022/06/15 00:14:17;;;;;;;0.30;0.30;;;14.00;98.00;;;;;;5114895;28;20497;-71
2022/06/15 00:16:44;;;;;;;0.30;0.30;;;14.00;98.20;;;;;;5115136;28;20381;-70
2022/06/15 00:19:10;;;;;;;0.30;0.30;;;14.00;97.70;;;;;;5115116;28;20813;-69
2022/06/15 00:21:36;;;;;;;0.30;0.30;;;14.10;97.70;;;;;;5115317;28;20398;-70
2022/06/15 00:24:02;;;;;;;0.30;0.30;;;14.10;97.90;;;;;;5114752;28;20456;-70
2022/06/15 00:26:28;;;;;;;0.30;0.30;;;14.10;98.00;;;;;;5114341;28;20804;-69
2022/06/15 00:28:54;;;;;;;0.30;0.30;;;14.00;98.80;;;;;;5115048;28;20406;-69
2022/06/15 00:31:20;;;;;;;0.30;0.30;;;14.00;98.70;;;;;;5115172;28;20402;-70
2022/06/15 00:33:47;;;;;;;0.30;0.30;;;14.10;98.60;;;;;;5114647;28;20445;-70
2022/06/15 00:36:16;;;;;;;0.30;0.30;;;13.90;98.90;;;;;;5114909;28;20793;-69
2022/06/15 00:38:47;;;;;;;0.30;0.30;;;14.00;98.80;;;;;;5115177;28;20401;-70
2022/06/15 00:41:22;;;;;;;0.30;0.30;;;14.00;99.10;;;;;;5114957;28;20729;-69
2022/06/15 00:43:57;;;;;;;0.30;0.30;;;14.00;99.00;;;;;;5114540;28;20433;-69
2022/06/15 00:46:22;;;;;;;0.40;0.40;;;13.90;98.90;;;;;;5114936;28;20400;-69
2022/06/15 00:48:53;;;;;;;0.30;0.30;;;13.90;99.10;;;;;;5114667;28;20780;-69
2022/06/15 00:51:20;;;;;;;0.40;0.40;;;13.80;99.30;;;;;;5114858;28;20202;-70
2022/06/15 00:53:46;;;;;;;0.30;0.30;;;13.90;99.30;;;;;;5114455;28;20453;-70
2022/06/15 00:56:12;;;;;;;0.50;0.50;;;13.90;99.50;;;;;;5114481;28;20401;-69
2022/06/15 00:58:43;;;;;;;0.30;0.30;;;13.90;99.50;;;;;;5114596;28;20837;-71
2022/06/15 01:01:08;;;;;;;0.40;0.40;;;13.90;99.20;;;;;;5114640;28;20396;-69
2022/06/15 01:03:34;;;;;;;0.30;0.30;;;13.90;99.30;;;;;;5114199;28;20474;-69
2022/06/15 01:06:22;;;;;;;0.30;0.30;;;13.90;99.10;;;;;;5114318;28;20165;-70
2022/06/15 01:09:02;;;;;;;0.30;0.30;;;13.90;98.80;;;;;;5114514;28;20240;-70
2022/06/15 01:11:43;;;;;;;0.30;0.30;;;13.90;99.10;;;;;;5114524;28;20815;-70
2022/06/15 01:14:54;;;;;;;0.30;0.30;;;14.00;99.40;;;;;;5114017;28;20446;-69
2022/06/15 01:17:46;;;;;;;0.37;0.37;;;14.00;99.00;;;;;;5097956;28;20409;-69
2022/06/15 01:20:21;;;;;;;0.30;0.30;;;14.00;99.20;;;;;;5114280;28;20397;-70
2022/06/15 01:23:14;;;;;;;0.30;0.30;;;13.90;99.40;;;;;;5113959;28;20825;-69
2022/06/15 01:25:51;;;;;;;0.30;0.30;;;13.90;99.50;;;;;;5114103;28;20382;-70
2022/06/15 01:28:43;;;;;;;0.40;0.40;;;13.90;99.50;;;;;;5114001;28;20454;-70
2022/06/15 01:31:17;;;;;;;0.30;0.30;;;13.90;99.70;;;;;;5108306;28;20839;-69
2022/06/15 01:34:01;;;;;;;0.30;0.30;;;13.90;99.50;;;;;;5113702;28;20455;-70
2022/06/15 01:36:47;;;;;;;0.83;0.70;;;13.90;99.50;;;;;;5113925;28;20407;-70
2022/06/15 01:39:28;;;;;;;0.30;0.30;;;13.90;99.40;;;;;;5119329;28;20435;-70
2022/06/15 01:42:22;;;;;;;0.30;0.30;;;13.90;99.50;;;;;;5120930;27;20401;-70
2022/06/15 01:44:53;;;;;;;0.30;0.30;;;13.90;99.60;;;;;;5120634;27;20424;-70
2022/06/15 01:47:23;;;;;;;0.30;0.30;;;13.80;99.80;;;;;;5120959;27;20401;-69
2022/06/15 01:49:57;;;;;;;1.00;0.80;;;13.90;99.90;;;;;;5120891;27;20448;-69
2022/06/15 01:52:25;;;;;;;0.30;0.30;;;13.80;99.90;;;;;;5120727;27;20437;-70
2022/06/15 01:55:05;;;;;;;0.30;0.30;;;13.90;99.70;;;;;;5120669;27;20860;-69
2022/06/15 01:57:34;;;;;;;0.30;0.30;;;14.00;99.60;;;;;;5120835;27;20408;-70
2022/06/15 02:00:08;;;;;;;0.30;0.30;;;14.10;99.80;;;;;;5120660;27;20397;-71
2022/06/15 02:03:05;;;;;;;0.30;0.30;;;14.20;99.90;;;;;;5120609;27;21120;-70
2022/06/15 02:05:45;;;;;;;0.30;0.30;;;14.20;99.90;;;;;;5120783;27;20492;-68
2022/06/15 02:08:18;;;;;;;0.50;0.50;;;14.30;99.90;;;;;;5120579;27;20404;-70
2022/06/15 02:11:12;;;;;;;0.30;0.30;;;14.20;99.90;;;;;;5120604;27;20406;-69
2022/06/15 02:14:08;;;;;;;1.23;1.23;;;14.20;99.90;;;;;;5120150;27;20432;-70
2022/06/15 02:16:44;;;;;;;0.30;0.30;;;14.30;99.90;;;;;;5119377;28;20477;-70
2022/06/15 02:19:15;;;;;;;0.30;0.30;;;14.30;99.90;;;;;;5120635;27;20389;-70
2022/06/15 02:21:44;;;;;;;0.30;0.30;;;14.30;99.90;;;;;;5120563;27;20394;-69
2022/06/15 02:24:12;;;;;;;0.30;0.30;;;14.30;99.90;;;;;;5120043;27;20520;-70
2022/06/15 02:26:39;;;;;;;0.40;0.40;;;14.40;99.90;;;;;;5120485;27;20815;-69
2022/06/15 02:29:09;;;;;;;0.30;0.30;;;14.40;99.90;;;;;;5120359;27;20401;-70
2022/06/15 02:31:36;;;;;;;0.30;0.30;;;14.40;99.90;;;;;;5120570;27;20496;-70
2022/06/15 02:34:03;;;;;;;0.50;0.50;;;14.40;99.90;;;;;;5120058;28;20852;-70
2022/06/15 02:36:32;;;;;;;0.30;0.30;;;14.50;99.90;;;;;;5120195;27;20422;-70
2022/06/15 02:38:59;;;;;;;0.57;0.57;;;14.50;99.90;;;;;;5120237;27;20424;-69
2022/06/15 02:41:25;;;;;;;0.30;0.30;;;14.50;99.90;;;;;;5120422;27;20418;-70
2022/06/15 02:43:54;;;;;;;0.30;0.30;;;14.40;99.90;;;;;;5120166;27;20429;-69
2022/06/15 02:46:22;;;;;;;0.30;0.30;;;14.30;99.90;;;;;;5120106;27;20427;-69
2022/06/15 02:48:48;;;;;;;0.40;0.40;;;14.40;99.90;;;;;;5120176;27;20394;-70
2022/06/15 02:51:24;;;;;;;0.30;0.30;;;14.30;99.90;;;;;;5115974;27;20745;-69
2022/06/15 02:53:53;;;;;;;0.30;0.30;;;14.30;99.90;;;;;;5116698;28;20241;-70
2022/06/15 02:56:20;;;;;;;0.30;0.30;;;14.40;99.90;;;;;;5117056;28;20390;-70
2022/06/15 02:58:48;;;;;;;0.30;0.30;;;14.50;99.90;;;;;;5116903;28;20759;-70
2022/06/15 03:01:14;;;;;;;0.30;0.30;;;14.40;99.90;;;;;;5116878;28;20425;-70
2022/06/15 03:03:41;;;;;;;0.40;0.40;;;14.40;99.90;;;;;;5116609;28;20467;-69
2022/06/15 03:06:11;;;;;;;0.30;0.30;;;14.40;99.90;;;;;;5116646;28;20408;-70
2022/06/15 03:08:37;;;;;;;0.30;0.30;;;14.30;99.90;;;;;;5116841;28;20408;-70
2022/06/15 03:11:03;;;;;;;0.37;0.37;;;14.30;99.90;;;;;;5116750;28;20891;-70
2022/06/15 03:13:29;;;;;;;0.30;0.30;;;14.30;99.90;;;;;;5116185;28;20271;-69
2022/06/15 03:15:59;;;;;;;0.30;0.30;;;14.30;99.90;;;;;;5116401;28;20485;-70
2022/06/15 03:18:26;;;;;;;0.30;0.30;;;14.40;99.90;;;;;;5116402;28;20530;-69
2022/06/15 03:20:57;;;;;;;0.40;0.40;;;14.30;99.90;;;;;;5116386;28;20402;-70
2022/06/15 03:23:22;;;;;;;0.33;0.33;;;14.40;99.90;;;;;;5116122;28;20489;-70
2022/06/15 03:25:53;;;;;;;0.30;0.30;;;14.40;99.90;;;;;;5116318;28;20434;-69
2022/06/15 03:28:19;;;;;;;0.60;0.60;;;14.40;99.90;;;;;;5116450;28;20186;-70
2022/06/15 03:30:45;;;;;;;0.30;0.30;;;14.50;99.90;;;;;;5116115;27;20481;-70
2022/06/15 03:33:10;;;;;;;0.30;0.30;;;14.50;99.90;;;;;;5115932;28;20191;-69
2022/06/15 03:35:36;;;;;;;0.30;0.30;;;14.50;99.90;;;;;;5116006;28;20722;-70
2022/06/15 03:38:03;;;;;;;0.30;0.30;;;14.50;99.90;;;;;;5116100;28;20234;-70
2022/06/15 03:40:29;;;;;;;0.30;0.30;;;14.50;99.90;;;;;;5116199;28;20175;-70
2022/06/15 03:42:55;;;;;;;0.47;0.47;;;14.50;99.90;;;;;;5115778;28;20493;-70
2022/06/15 03:45:21;;;;;;;0.30;0.30;;;14.50;99.90;;;;;;5115864;28;20433;-69
2022/06/15 03:47:47;;;;;;;0.40;0.40;;;14.50;99.90;;;;;;5116247;28;20408;-70
2022/06/15 03:50:13;;;;;;;0.30;0.30;;;14.50;99.90;;;;;;5115989;28;20734;-68
2022/06/15 03:52:38;;;;;;;0.30;0.30;;;14.60;99.90;;;;;;5115500;28;20409;-70
2022/06/15 03:55:04;;;;;;;0.73;0.73;;;14.60;99.90;;;;;;5115671;28;20967;-70
2022/06/15 03:57:31;;;;;;;0.70;0.70;;;14.60;99.90;;;;;;5114528;28;20659;-70
2022/06/15 03:59:57;;;;;;;0.70;0.70;;;14.60;99.90;;;;;;5115545;28;20514;-70
2022/06/15 04:02:22;;;;;;;0.40;0.40;;;14.50;99.90;;;;;;5115591;28;20855;-71
2022/06/15 04:04:49;;;;;;;0.30;0.30;;;14.70;99.90;;;;;;5115416;28;20184;-69
2022/06/15 04:09:58;;;;;;;0.37;0.37;;;14.70;99.90;;;;;;5115561;28;20484;-70
2022/06/15 04:12:24;;;;;;;0.30;0.30;;;14.80;99.90;;;;;;5115142;28;20430;-70
2022/06/15 04:14:50;;;;;;;0.30;0.30;;;14.80;99.90;;;;;;5115582;28;20224;-70
2022/06/15 04:17:17;;;;;;;0.30;0.30;;;15.00;99.90;;;;;;5115473;28;20532;-70
2022/06/15 04:19:44;;;;;;;1.90;1.80;;;15.10;99.90;;;;;;5115342;28;20163;-69
2022/06/15 04:22:09;;;;;;;0.30;0.30;;;15.20;99.90;;;;;;5115122;28;20395;-70
2022/06/15 04:24:36;;;;;;;0.30;0.30;;;15.40;99.90;;;;;;5115198;28;20458;-69
2022/06/15 04:27:02;;;;;;;0.30;0.30;;;15.60;99.90;;;;;;5115044;28;20519;-69
2022/06/15 04:29:28;;;;;;;0.30;0.30;;;15.90;99.90;;;;;;5115018;28;20410;-70
2022/06/15 04:31:54;;;;;;;0.30;0.30;;;16.10;99.90;;;;;;5115156;28;20400;-70
2022/06/15 04:34:19;;;;;;;0.30;0.30;;;16.20;99.90;;;;;;5114621;28;20235;-69
2022/06/15 04:36:46;;;;;;;0.60;0.60;;;16.20;99.60;;;;;;5113756;28;20212;-70
2022/06/15 04:39:14;;;;;;;0.83;0.83;;;16.20;99.60;;;;;;5115063;28;20215;-70
2022/06/15 04:41:41;;;;;;;0.30;0.30;;;16.20;99.70;;;;;;5114764;27;20421;-69
2022/06/15 04:44:09;;;;;;;0.30;0.30;;;16.10;99.90;;;;;;5114553;28;20433;-70
2022/06/15 04:46:34;;;;;;;0.30;0.30;;;16.10;99.90;;;;;;5114756;28;20488;-70
2022/06/15 04:49:01;;;;;;;0.30;0.30;;;16.00;99.90;;;;;;5114770;28;20491;-70
2022/06/15 04:51:29;;;;;;;0.30;0.30;;;16.10;99.90;;;;;;5114781;28;20180;-70
2022/06/15 04:53:57;;;;;;;0.50;0.50;;;16.20;99.90;;;;;;5114224;28;20450;-69
2022/06/15 04:56:24;;;;;;;0.30;0.30;;;16.30;99.90;;;;;;5114530;28;20406;-70
2022/06/15 04:58:50;;;;;;;0.30;0.30;;;16.70;99.90;;;;;;5114538;28;20804;-70
2022/06/15 05:01:16;;;;;;;0.30;0.30;;;17.10;99.90;;;;;;5114520;28;20481;-69
2022/06/15 05:03:42;;;;;;;0.30;0.30;;;17.60;99.90;;;;;;5114302;28;20857;-71
2022/06/15 05:06:10;;;;;;;0.30;0.30;;;18.00;98.70;;;;;;5113073;28;20449;-69
2022/06/15 05:08:36;;;;;;;0.30;0.30;;;18.30;98.00;;;;;;5114493;28;20402;-71
2022/06/15 05:11:02;;;;;;;0.40;0.40;;;18.50;97.70;;;;;;5114489;28;20413;-70
2022/06/15 05:13:28;;;;;;;0.40;0.40;;;18.60;97.10;;;;;;5113486;28;20942;-69
2022/06/15 05:15:55;;;;;;;0.30;0.30;;;18.70;96.50;;;;;;5114463;28;20282;-70
2022/06/15 05:18:21;;;;;;;0.53;0.53;;;18.60;96.50;;;;;;5114514;28;20416;-71
2022/06/15 05:20:47;;;;;;;0.30;0.30;;;18.60;96.80;;;;;;5114230;28;20410;-70
2022/06/15 05:23:14;;;;;;;0.40;0.40;;;18.50;96.60;;;;;;5113871;28;20914;-70
2022/06/15 05:25:40;;;;;;;0.30;0.30;;;18.60;96.80;;;;;;5114127;28;20402;-70
2022/06/15 05:28:06;;;;;;;0.30;0.30;;;18.80;96.70;;;;;;5114423;28;20902;-71
2022/06/15 05:30:32;;;;;;;0.40;0.40;;;19.00;96.70;;;;;;5114405;28;20170;-70
2022/06/15 05:32:58;;;;;;;0.30;0.30;;;19.10;96.40;;;;;;5113786;28;20989;-70
2022/06/15 05:35:23;;;;;;;0.30;0.30;;;19.40;96.70;;;;;;5113852;28;20198;-71
2022/06/15 05:37:49;;;;;;;0.30;0.30;;;19.80;96.10;;;;;;5114189;28;20205;-70
2022/06/15 05:40:15;;;;;;;0.50;0.50;;;20.20;95.80;;;;;;5114182;28;20198;-70
2022/06/15 05:42:40;;;;;;;0.30;0.30;;;20.70;95.00;;;;;;5113828;28;20168;-71
2022/06/15 05:45:07;;;;;;;0.40;0.40;;;21.20;93.70;;;;;;5114148;28;20626;-70
2022/06/15 05:47:32;;;;;;;0.30;0.30;;;21.60;93.50;;;;;;5114050;28;20179;-71
2022/06/15 05:49:59;;;;;;;0.80;0.80;;;21.70;93.00;;;;;;5112704;28;20827;-70
2022/06/15 05:52:25;;;;;;;0.53;0.53;;;21.70;92.80;;;;;;5113702;28;20181;-70
2022/06/15 05:54:51;;;;;;;0.67;0.50;;;21.70;92.70;;;;;;5113695;28;20455;-71
2022/06/15 05:57:19;;;;;;;0.50;0.50;;;21.80;92.10;;;;;;5113819;28;20412;-70
2022/06/15 05:59:46;;;;;;;0.53;0.53;;;21.90;93.00;;;;;;5113944;28;20212;-70
2022/06/15 06:02:14;;;;;;;0.30;0.30;;;22.00;92.90;;;;;;5113738;28;20470;-70
2022/06/15 06:04:39;;;;;;;0.40;0.40;;;22.30;93.10;;;;;;5113625;28;20466;-70
2022/06/15 06:07:05;;;;;;;0.30;0.30;;;22.70;92.80;;;;;;5113897;28;20398;-71
2022/06/15 06:09:31;;;;;;;0.47;0.47;;;23.30;91.50;;;;;;5113725;28;20198;-71
2022/06/15 06:11:57;;;;;;;0.30;0.30;;;23.80;90.90;;;;;;5112446;28;20421;-70
2022/06/15 06:14:23;;;;;;;0.30;0.30;;;24.20;90.20;;;;;;5113345;28;20203;-71
2022/06/15 06:16:49;;;;;;;0.70;0.70;;;24.80;87.50;;;;;;5113781;28;20382;-71
2022/06/15 06:19:15;;;;;;;0.30;0.30;;;25.90;86.90;;;;;;5113725;28;20176;-71
2022/06/15 06:21:43;;;;;;;0.30;0.30;;;26.90;81.40;;;;;;5113577;28;20402;-71
2022/06/15 06:24:09;;;;;;;0.30;0.30;;;27.70;76.20;;;;;;5113203;28;20220;-71
2022/06/15 06:26:35;;;;;;;0.33;0.33;;;28.20;75.60;;;;;;5116733;28;20402;-71
2022/06/15 06:29:01;;;;;;;0.40;0.40;;;28.50;74.50;;;;;;5117531;28;20501;-72
2022/06/15 06:31:27;;;;;;;0.30;0.30;;;28.80;71.20;;;;;;5117613;28;20839;-71
2022/06/15 06:33:53;;;;;;;0.93;0.57;;;29.20;71.30;;;;;;5117012;28;20485;-72
2022/06/15 06:36:22;;;;;;;0.53;0.53;;;30.10;68.70;;;;;;5117432;28;20425;-71
2022/06/15 06:38:47;;;;;;;0.40;0.40;;;31.00;62.10;;;;;;5117236;28;20455;-72
2022/06/15 06:41:19;;;;;;;0.50;0.40;;;32.40;59.00;;;;;;5117542;28;20399;-72
2022/06/15 06:43:44;;;;;;;0.60;0.50;;;33.70;54.30;;;;;;5117044;28;20273;-71
2022/06/15 06:46:10;;;;;;;0.30;0.30;;;34.80;52.10;;;;;;5117047;28;20489;-71
2022/06/15 06:48:35;;;;;;;1.00;1.00;;;35.80;50.40;;;;;;5117154;28;20637;-72
2022/06/15 06:51:01;;;;;;;0.40;0.40;;;36.30;47.80;;;;;;5116949;28;20202;-71
2022/06/15 06:53:27;;;;;;;0.50;0.50;;;36.80;47.30;;;;;;5116777;27;20237;-72
2022/06/15 06:55:52;;;;;;;0.50;0.50;;;37.00;42.80;;;;;;5116794;28;20200;-70
2022/06/15 06:58:18;;;;;;;0.83;0.83;;;37.20;42.90;;;;;;5116772;28;20171;-69
2022/06/15 07:00:46;;;;;;;0.30;0.30;;;37.70;41.30;;;;;;5116964;28;20193;-69
2022/06/15 07:03:11;;;;;;;0.50;0.50;;;38.10;40.50;;;;;;5116580;28;20547;-70
2022/06/15 07:05:37;;;;;;;0.60;0.60;;;38.40;39.00;;;;;;5116842;28;20402;-69
2022/06/15 07:08:04;;;;;;;0.40;0.40;;;38.50;39.30;;;;;;5116865;28;20191;-68
2022/06/15 07:10:30;;;;;;;0.70;0.40;;;38.60;38.10;;;;;;5116722;28;20175;-70
2022/06/15 07:12:56;;;;;;;0.40;0.40;;;38.70;37.50;;;;;;5115046;28;20426;-69
2022/06/15 07:15:21;;;;;;;0.30;0.30;;;38.40;36.10;;;;;;5116431;28;20184;-70
2022/06/15 07:17:47;;;;;;;0.50;0.50;;;38.40;37.30;;;;;;5116362;28;20214;-70
2022/06/15 07:20:13;;;;;;;0.40;0.40;;;38.80;36.40;;;;;;5116607;28;20684;-69
2022/06/15 07:22:39;;;;;;;0.40;0.40;;;38.80;35.70;;;;;;5115948;28;20274;-70
2022/06/15 07:25:07;;;;;;;0.50;0.50;;;38.80;35.70;;;;;;5116529;28;20344;-69
2022/06/15 07:27:35;;;;;;;0.43;0.43;;;38.60;35.40;;;;;;5116491;28;20412;-70
2022/06/15 07:30:06;;;;;;;0.70;0.70;;;39.00;37.00;;;;;;5116377;28;20489;-70
2022/06/15 07:32:32;;;;;;;1.60;1.50;;;39.00;34.00;;;;;;5115995;28;20402;-69
2022/06/15 07:34:58;;;;;;;0.40;0.40;;;38.40;35.70;;;;;;5115923;28;20470;-69
2022/06/15 07:37:24;;;;;;;0.40;0.40;;;38.30;34.60;;;;;;5115605;28;20455;-69
2022/06/15 07:39:49;;;;;;;0.60;0.50;;;36.70;33.20;;;;;;5116313;28;20237;-68
2022/06/15 07:42:15;;;;;;;1.40;1.37;;;36.80;35.80;;;;;;5116017;28;20174;-68
2022/06/15 07:44:40;;;;;;;2.53;2.40;;;37.50;33.50;;;;;;5115839;27;20283;-69
2022/06/15 07:49:59;;;;;;;0.40;0.30;;;39.50;30.60;;;;;;5116302;28;20206;-69
2022/06/15 07:52:30;;;;;;;0.60;0.60;;;40.50;31.70;;;;;;5115714;28;20426;-70
2022/06/15 07:54:56;;;;;;;0.30;0.30;;;41.00;29.30;;;;;;5115603;28;20450;-69
2022/06/15 07:57:23;;;;;;;0.30;0.30;;;40.70;28.30;;;;;;5115841;28;20445;-70
2022/06/15 07:59:49;;;;;;;0.40;0.40;;;40.20;28.40;;;;;;5115886;28;20394;-70
2022/06/15 08:02:15;;;;;;;0.40;0.30;;;40.60;29.30;;;;;;5115423;28;20434;-69
2022/06/15 08:04:41;;;;;;;0.30;0.30;;;39.80;29.40;;;;;;5115465;28;20784;-69
2022/06/15 08:07:10;;;;;;;1.00;0.93;;;40.30;29.70;;;;;;5115567;28;20447;-70
2022/06/15 08:09:36;;;;;;;0.30;0.30;;;40.50;28.30;;;;;;5115528;28;20172;-69
2022/06/15 08:12:19;;;;;;;0.60;0.60;;;39.40;28.30;;;;;;5115206;28;20429;-69
2022/06/15 08:14:48;;;;;;;0.40;0.30;;;39.10;31.20;;;;;;5115235;28;20674;-68
2022/06/15 08:17:24;;;;;;;0.80;0.80;;;39.30;29.50;;;;;;5115191;28;20406;-69
2022/06/15 08:19:54;;;;;;;0.40;0.40;;;39.20;27.90;;;;;;5115424;28;20827;-69
2022/06/15 08:22:20;;;;;;;0.40;0.37;;;38.60;30.60;;;;;;5114820;28;20441;-69
2022/06/15 08:24:47;;;;;;;0.50;0.50;;;39.10;31.50;;;;;;5115134;28;20802;-70
2022/06/15 08:27:15;;;;;;;0.57;0.57;;;38.50;28.70;;;;;;5115091;28;20481;-69
2022/06/15 08:29:42;;;;;;;0.40;0.40;;;39.40;29.40;;;;;;5115078;28;20402;-68
2022/06/15 08:32:09;;;;;;;0.70;0.60;;;39.80;28.60;;;;;;5114950;28;20481;-69
2022/06/15 08:34:37;;;;;;;0.30;0.30;;;38.40;29.40;;;;;;5114940;28;21036;-69
2022/06/15 08:37:10;;;;;;;0.40;0.30;;;38.80;31.00;;;;;;5114862;28;20432;-69
2022/06/15 08:39:36;;;;;;;0.30;0.30;;;39.70;29.20;;;;;;5114778;28;20493;-69
2022/06/15 08:42:38;;;;;;;0.63;0.63;;;39.60;27.30;;;;;;5114568;28;20398;-69
2022/06/15 08:45:33;;;;;;;0.40;0.33;;;38.00;27.50;;;;;;5114705;28;20761;-69
2022/06/15 08:48:14;;;;;;;0.40;0.30;;;38.50;29.30;;;;;;5108053;28;20465;-70
2022/06/15 08:50:57;;;;;;;1.43;1.03;;;39.20;30.90;;;;;;5114614;28;20898;-69
2022/06/15 08:53:47;;;;;;;0.40;0.30;;;38.80;30.00;;;;;;5114406;28;20793;-68
2022/06/15 08:56:36;;;;;;;0.40;0.40;;;38.20;28.20;;;;;;5114537;28;20422;-69
2022/06/15 08:59:18;;;;;;;0.50;0.50;;;38.40;28.90;;;;;;5114650;28;20430;-69
2022/06/15 09:02:16;;;;;;;1.07;1.00;;;38.20;31.90;;;;;;5114606;28;20421;-68
2022/06/15 09:05:13;;;;;;;0.40;0.30;;;39.10;30.00;;;;;;5114553;27;20428;-69
2022/06/15 09:07:52;;;;;;;0.30;0.30;;;39.50;29.30;;;;;;5099600;28;20778;-69
2022/06/15 09:10:50;;;;;;;0.40;0.30;;;40.10;28.20;;;;;;5114497;28;21133;-69
2022/06/15 09:13:20;;;;;;;0.40;0.37;;;39.70;28.20;;;;;;5094207;28;20791;-69
2022/06/15 09:16:07;;;;;;;0.33;0.30;;;39.20;27.40;;;;;;5114122;28;20441;-69
2022/06/15 09:18:39;;;;;;;0.50;0.40;;;39.30;27.70;;;;;;5114401;28;20394;-70
2022/06/15 09:21:25;;;;;;;0.70;0.70;;;39.50;29.00;;;;;;5114199;28;20425;-70
2022/06/15 09:24:09;;;;;;;0.30;0.30;;;39.90;29.10;;;;;;5113803;28;20450;-69
2022/06/15 09:26:40;;;;;;;0.40;0.40;;;40.20;28.90;;;;;;5114188;28;20749;-69
2022/06/15 09:29:11;;;;;;;0.60;0.60;;;39.90;27.30;;;;;;5114533;28;20446;-69
2022/06/15 09:32:18;;;;;;;0.60;0.60;;;40.30;27.20;;;;;;5114095;28;20391;-69
2022/06/15 09:34:55;;;;;;;0.40;0.37;;;39.80;27.90;;;;;;5113803;28;20453;-68
2022/06/15 09:37:23;;;;;;;0.40;0.30;;;40.00;28.70;;;;;;5114163;28;20393;-69
2022/06/15 09:39:49;;;;;;;0.73;0.73;;;38.80;28.10;;;;;;5112633;28;20769;-70
2022/06/15 09:42:20;;;;;;;0.30;0.30;;;38.40;29.00;;;;;;5113907;28;20390;-69
2022/06/15 09:45:23;;;;;;;0.50;0.40;;;37.40;29.20;;;;;;5113845;28;20604;-69
2022/06/15 09:48:19;;;;;;;0.30;0.30;;;37.10;31.90;;;;;;5114536;28;20905;-69
2022/06/15 09:50:58;;;;;;;0.40;0.40;;;37.60;31.40;;;;;;5113962;28;20421;-69
2022/06/15 09:53:41;;;;;;;0.40;0.40;;;37.00;30.50;;;;;;5113710;28;20486;-68
2022/06/15 09:56:13;;;;;;;0.40;0.40;;;36.30;31.20;;;;;;5113763;28;20387;-69
2022/06/15 09:59:04;;;;;;;0.30;0.30;;;36.20;30.80;;;;;;5114070;28;20386;-69
2022/06/15 10:01:38;;;;;;;0.30;0.30;;;36.90;33.80;;;;;;5118039;27;20447;-68
2022/06/15 10:04:05;;;;;;;0.30;0.30;;;36.90;29.90;;;;;;5117850;28;20509;-69
2022/06/15 10:06:56;;;;;;;0.37;0.30;;;36.50;31.20;;;;;;5117770;28;20756;-68
2022/06/15 10:09:26;;;;;;;0.83;0.83;;;37.00;33.30;;;;;;5116574;28;20406;-69
2022/06/15 10:11:56;;;;;;;0.50;0.50;;;37.20;34.80;;;;;;5117892;28;20402;-69
2022/06/15 10:14:29;;;;;;;0.63;0.63;;;36.80;30.70;;;;;;5117363;28;20449;-69
2022/06/15 10:16:59;;;;;;;0.40;0.40;;;36.60;31.50;;;;;;5117578;28;20398;-69
2022/06/15 10:19:28;;;;;;;0.80;0.80;;;36.60;30.40;;;;;;5117786;28;20756;-69
2022/06/15 10:21:59;;;;;;;0.40;0.40;;;36.50;33.40;;;;;;5117416;28;20398;-68
2022/06/15 10:24:33;;;;;;;0.40;0.40;;;36.00;34.90;;;;;;5117143;28;20474;-68
2022/06/15 10:27:23;;;;;;;0.40;0.40;;;35.90;32.00;;;;;;5117637;28;20830;-69
2022/06/15 10:29:57;;;;;;;6.20;1.17;;;36.20;32.60;;;;;;5117062;28;20830;-69
2022/06/15 10:32:23;;;;;;;0.43;0.43;;;36.00;32.50;;;;;;5116635;28;20783;-69
2022/06/15 10:34:57;;;;;;;2.67;1.27;;;36.20;33.50;;;;;;5117190;28;20448;-68
2022/06/15 10:37:31;;;;;;;0.40;0.40;;;36.10;34.70;;;;;;5117353;28;20160;-68
2022/06/15 10:40:00;;;;;;;0.30;0.30;;;36.00;35.80;;;;;;5117079;28;20394;-69
2022/06/15 10:42:36;;;;;;;0.40;0.40;;;35.80;34.00;;;;;;5116862;28;20493;-68
2022/06/15 10:45:06;;;;;;;0.30;0.30;;;35.80;36.60;;;;;;5117001;28;20426;-69
2022/06/15 10:47:48;;;;;;;0.40;0.40;;;35.70;32.00;;;;;;5117140;28;20500;-69
2022/06/15 10:50:23;;;;;;;0.53;0.53;;;35.30;37.80;;;;;;5117123;27;20417;-69
2022/06/15 10:52:58;;;;;;;0.40;0.30;;;34.80;35.50;;;;;;5116678;28;20393;-68
2022/06/15 11:04:05;;;;;;;0.50;0.50;;;32.60;38.60;;;;;;5116669;28;20511;-69
2022/06/15 11:06:45;;;;;;;1.03;0.83;;;32.10;37.20;;;;;;5116653;28;20394;-69
2022/06/15 11:09:39;;;;;;;0.50;0.50;;;31.80;38.10;;;;;;5116645;28;20393;-69
2022/06/15 11:12:39;;;;;;;0.30;0.30;;;31.60;40.30;;;;;;5114163;28;20414;-69
2022/06/15 11:15:21;;;;;;;0.40;0.40;;;31.50;35.70;;;;;;5092855;28;21099;-68
2022/06/15 11:18:04;;;;;;;0.40;0.40;;;31.40;40.00;;;;;;5116591;27;20409;-69
2022/06/15 11:20:33;;;;;;;0.30;0.30;;;31.10;40.90;;;;;;5115096;28;21007;-68
2022/06/15 11:23:17;;;;;;;0.30;0.30;;;30.80;36.90;;;;;;5116034;28;20965;-68
2022/06/15 11:25:48;;;;;;;0.70;0.70;;;30.60;38.20;;;;;;5116517;28;20572;-69
2022/06/15 11:28:24;;;;;;;0.83;0.83;;;30.60;39.70;;;;;;5116207;28;20425;-67
2022/06/15 11:30:56;;;;;;;0.60;0.60;;;30.60;39.00;;;;;;5116327;28;20497;-67
2022/06/15 11:33:26;;;;;;;0.50;0.50;;;30.70;36.90;;;;;;5115899;28;20426;-69
2022/06/15 11:36:07;;;;;;;0.40;0.40;;;30.80;38.10;;;;;;5116177;28;20444;-69
2022/06/15 11:38:56;;;;;;;1.00;1.00;;;30.60;40.70;;;;;;5116022;28;20434;-69
2022/06/15 11:41:27;;;;;;;0.70;0.50;;;30.60;42.20;;;;;;5116398;28;20422;-69
2022/06/15 11:43:55;;;;;;;0.50;0.50;;;30.60;38.50;;;;;;5115770;27;20787;-69
2022/06/15 11:47:09;;;;;;;0.40;0.40;;;30.60;38.50;;;;;;5115762;28;20406;-67
2022/06/15 11:50:02;;;;;;;0.40;0.40;;;30.50;38.90;;;;;;5073191;28;20440;-69
2022/06/15 11:52:43;;;;;;;0.40;0.40;;;30.00;38.10;;;;;;5073073;28;20853;-68
2022/06/15 11:55:30;;;;;;;0.30;0.30;;;30.00;38.00;;;;;;5108038;27;21000;-68
2022/06/15 11:58:25;;;;;;;0.30;0.30;;;30.00;37.30;;;;;;5115734;28;20394;-67
2022/06/15 12:01:08;;;;;;;0.30;0.30;;;30.10;39.90;;;;;;5115401;28;20427;-69
2022/06/15 12:04:02;;;;;;;0.40;0.40;;;29.90;36.50;;;;;;5115299;28;20505;-68
2022/06/15 12:06:31;;;;;;;0.40;0.40;;;29.60;38.90;;;;;;5115520;28;20406;-68
2022/06/15 12:09:03;;;;;;;0.30;0.30;;;29.60;40.60;;;;;;5115667;28;20416;-68
2022/06/15 12:14:34;;;;;;;0.40;0.40;;;29.60;42.60;;;;;;5115020;28;20457;-68
2022/06/15 12:17:06;;;;;;;0.50;0.50;;;29.60;40.30;;;;;;5115357;28;20430;-68
2022/06/15 12:20:16;;;;;;;0.30;0.30;;;29.70;40.00;;;;;;5115500;28;20455;-69
2022/06/15 12:23:06;;;;;;;0.30;0.30;;;29.90;39.50;;;;;;5110038;27;20465;-69
2022/06/15 12:25:40;;;;;;;0.30;0.30;;;30.00;39.20;;;;;;5115140;28;20397;-69
2022/06/15 12:28:18;;;;;;;0.30;0.30;;;30.00;38.90;;;;;;5115205;28;20398;-69
2022/06/15 12:31:16;;;;;;;0.83;0.50;;;30.10;41.50;;;;;;5115027;28;20483;-69
2022/06/15 12:33:51;;;;;;;1.17;0.80;;;30.20;38.90;;;;;;5112828;28;20442;-69
2022/06/15 12:36:20;;;;;;;0.40;0.40;;;30.30;38.80;;;;;;5114873;28;20417;-68
2022/06/15 12:38:55;;;;;;;0.30;0.30;;;30.40;42.30;;;;;;5114697;28;20390;-69
2022/06/15 12:44:26;;;;;;;0.40;0.40;;;30.20;38.90;;;;;;5114780;28;20445;-69
2022/06/15 12:46:53;;;;;;;0.30;0.30;;;30.10;36.50;;;;;;5114707;28;20435;-68
2022/06/15 12:49:39;;;;;;;0.60;0.60;;;29.90;37.40;;;;;;5114645;28;20409;-69
2022/06/15 12:52:25;;;;;;;0.30;0.30;;;29.80;39.60;;;;;;5114670;28;20485;-69
2022/06/15 12:55:21;;;;;;;0.50;0.50;;;29.70;41.60;;;;;;5114482;28;20449;-69
2022/06/15 12:58:03;;;;;;;0.60;0.40;;;29.50;42.50;;;;;;5114653;28;20396;-69
2022/06/15 13:00:38;;;;;;;0.40;0.40;;;29.50;41.10;;;;;;5114727;28;20394;-69
2022/06/15 13:03:45;;;;;;;0.30;0.30;;;29.60;39.20;;;;;;5114157;28;20946;-69
2022/06/15 13:06:34;;;;;;;1.07;0.93;;;29.70;39.30;;;;;;5114670;28;20858;-69
2022/06/15 13:09:14;;;;;;;0.30;0.30;;;29.60;42.60;;;;;;5114367;28;20915;-69
2022/06/15 13:12:03;;;;;;;0.30;0.30;;;29.40;42.30;;;;;;5114447;28;20390;-67
2022/06/15 13:14:37;;;;;;;0.30;0.30;;;29.30;40.20;;;;;;5114125;28;20446;-69
2022/06/15 13:17:16;;;;;;;0.37;0.37;;;29.30;40.70;;;;;;5114433;28;20397;-68
2022/06/15 13:19:46;;;;;;;0.60;0.60;;;29.40;39.30;;;;;;5114307;28;20401;-69
2022/06/15 13:22:28;;;;;;;0.30;0.30;;;29.50;39.70;;;;;;5113998;28;20422;-69
2022/06/15 13:25:03;;;;;;;0.60;0.50;;;29.40;45.50;;;;;;5114033;28;20475;-69
2022/06/15 13:27:39;;;;;;;0.40;0.40;;;29.30;36.50;;;;;;5114196;28;20808;-69
2022/06/15 13:30:20;;;;;;;0.40;0.40;;;29.30;40.00;;;;;;5114190;28;20406;-68
2022/06/15 13:33:06;;;;;;;0.30;0.30;;;29.20;39.30;;;;;;5113883;28;20543;-69
2022/06/15 13:35:38;;;;;;;0.40;0.40;;;29.20;39.10;;;;;;5113587;28;20449;-68
2022/06/15 13:38:27;;;;;;;0.30;0.30;;;29.20;44.80;;;;;;5114001;28;20402;-67